sensor_id;sensor_type;location;lat;lon;timestamp;P1;durP1;ratioP1;P2;durP2;ratioP2
54935;SDS011;40838;50.676;7.838;2022-08-03T00:01:28;3.55;;;2.50;;
54935;SDS011;40838;50.676;7.838;2022-08-03T00:03:54;3.03;;;2.20;;
54935;SDS011;40838;50.676;7.838;2022-08-03T00:06:21;2.30;;;2.10;;
54935;SDS011;40838;50.676;7.838;2022-08-03T00:08:48;4.18;;;2.25;;
54935;SDS011;40838;50.676;7.838;2022-08-03T00:11:14;2.63;;;2.38;;
54935;SDS011;40838;50.676;7.838;2022-08-03T00:13:42;3.10;;;2.47;;
54935;SDS011;40838;50.676;7.838;2022-08-03T00:16:09;4.10;;;2.08;;
54935;SDS011;40838;50.676;7.838;2022-08-03T00:18:35;7.95;;;2.20;;
54935;SDS011;40838;50.676;7.838;2022-08-03T00:21:04;4.90;;;2.25;;
54935;SDS011;40838;50.676;7.838;2022-08-03T00:23:30;2.45;;;2.25;;
54935;SDS011;40838;50.676;7.838;2022-08-03T00:25:57;2.20;;;2.05;;
54935;SDS011;40838;50.676;7.838;2022-08-03T00:28:24;4.75;;;2.40;;
54935;SDS011;40838;50.676;7.838;2022-08-03T00:30:52;8.57;;;2.63;;
54935;SDS011;40838;50.676;7.838;2022-08-03T00:33:20;2.83;;;2.60;;
54935;SDS011;40838;50.676;7.838;2022-08-03T00:35:46;2.53;;;2.30;;
54935;SDS011;40838;50.676;7.838;2022-08-03T00:38:13;2.80;;;2.55;;
54935;SDS011;40838;50.676;7.838;2022-08-03T00:40:40;2.42;;;2.22;;
54935;SDS011;40838;50.676;7.838;2022-08-03T00:43:07;4.57;;;2.90;;
54935;SDS011;40838;50.676;7.838;2022-08-03T00:45:35;4.35;;;2.80;;
54935;SDS011;40838;50.676;7.838;2022-08-03T00:48:04;3.28;;;2.55;;
54935;SDS011;40838;50.676;7.838;2022-08-03T00:50:32;3.10;;;2.55;;
54935;SDS011;40838;50.676;7.838;2022-08-03T00:53:00;2.72;;;2.50;;
54935;SDS011;40838;50.676;7.838;2022-08-03T00:55:27;2.70;;;2.50;;
54935;SDS011;40838;50.676;7.838;2022-08-03T00:57:55;2.88;;;2.65;;
54935;SDS011;40838;50.676;7.838;2022-08-03T01:00:22;7.40;;;2.88;;
54935;SDS011;40838;50.676;7.838;2022-08-03T01:02:49;4.65;;;3.10;;
54935;SDS011;40838;50.676;7.838;2022-08-03T01:05:22;3.38;;;2.83;;
54935;SDS011;40838;50.676;7.838;2022-08-03T01:07:52;3.58;;;2.90;;
54935;SDS011;40838;50.676;7.838;2022-08-03T01:10:24;3.92;;;2.67;;
54935;SDS011;40838;50.676;7.838;2022-08-03T01:12:56;4.30;;;2.60;;
54935;SDS011;40838;50.676;7.838;2022-08-03T01:15:28;4.20;;;2.72;;
54935;SDS011;40838;50.676;7.838;2022-08-03T01:17:57;2.42;;;2.22;;
54935;SDS011;40838;50.676;7.838;2022-08-03T01:20:26;3.83;;;2.67;;
54935;SDS011;40838;50.676;7.838;2022-08-03T01:22:59;6.00;;;2.25;;
54935;SDS011;40838;50.676;7.838;2022-08-03T01:25:34;2.63;;;2.42;;
54935;SDS011;40838;50.676;7.838;2022-08-03T01:28:08;3.20;;;2.60;;
54935;SDS011;40838;50.676;7.838;2022-08-03T01:33:08;4.22;;;2.55;;
54935;SDS011;40838;50.676;7.838;2022-08-03T01:35:38;2.83;;;2.25;;
54935;SDS011;40838;50.676;7.838;2022-08-03T01:38:08;4.68;;;2.30;;
54935;SDS011;40838;50.676;7.838;2022-08-03T01:40:36;4.45;;;2.70;;
54935;SDS011;40838;50.676;7.838;2022-08-03T01:43:04;2.40;;;2.20;;
54935;SDS011;40838;50.676;7.838;2022-08-03T01:45:31;5.45;;;2.35;;
54935;SDS011;40838;50.676;7.838;2022-08-03T01:47:58;2.90;;;2.60;;
54935;SDS011;40838;50.676;7.838;2022-08-03T01:50:28;2.45;;;2.25;;
54935;SDS011;40838;50.676;7.838;2022-08-03T01:52:55;2.70;;;2.50;;
54935;SDS011;40838;50.676;7.838;2022-08-03T01:55:24;3.40;;;2.47;;
54935;SDS011;40838;50.676;7.838;2022-08-03T01:57:52;2.95;;;2.65;;
54935;SDS011;40838;50.676;7.838;2022-08-03T02:00:19;2.50;;;2.30;;
54935;SDS011;40838;50.676;7.838;2022-08-03T02:02:46;2.92;;;2.50;;
54935;SDS011;40838;50.676;7.838;2022-08-03T02:05:14;5.80;;;2.90;;
54935;SDS011;40838;50.676;7.838;2022-08-03T02:07:46;3.00;;;2.70;;
54935;SDS011;40838;50.676;7.838;2022-08-03T02:10:13;4.20;;;2.92;;
54935;SDS011;40838;50.676;7.838;2022-08-03T02:12:42;3.85;;;2.78;;
54935;SDS011;40838;50.676;7.838;2022-08-03T02:15:09;3.47;;;3.17;;
54935;SDS011;40838;50.676;7.838;2022-08-03T02:17:36;3.05;;;2.75;;
54935;SDS011;40838;50.676;7.838;2022-08-03T02:20:03;2.60;;;2.40;;
54935;SDS011;40838;50.676;7.838;2022-08-03T02:22:30;4.65;;;2.90;;
54935;SDS011;40838;50.676;7.838;2022-08-03T02:24:59;7.22;;;2.90;;
54935;SDS011;40838;50.676;7.838;2022-08-03T02:27:26;3.42;;;3.10;;
54935;SDS011;40838;50.676;7.838;2022-08-03T02:29:55;2.63;;;2.40;;
54935;SDS011;40838;50.676;7.838;2022-08-03T02:32:27;5.15;;;2.80;;
54935;SDS011;40838;50.676;7.838;2022-08-03T02:34:54;5.07;;;2.58;;
54935;SDS011;40838;50.676;7.838;2022-08-03T02:37:23;3.70;;;2.40;;
54935;SDS011;40838;50.676;7.838;2022-08-03T02:39:51;3.22;;;2.47;;
54935;SDS011;40838;50.676;7.838;2022-08-03T02:42:20;3.50;;;2.60;;
54935;SDS011;40838;50.676;7.838;2022-08-03T02:44:48;11.18;;;2.75;;
54935;SDS011;40838;50.676;7.838;2022-08-03T02:47:16;2.38;;;2.17;;
54935;SDS011;40838;50.676;7.838;2022-08-03T02:49:45;4.35;;;2.75;;
54935;SDS011;40838;50.676;7.838;2022-08-03T02:52:13;2.90;;;2.45;;
54935;SDS011;40838;50.676;7.838;2022-08-03T02:54:40;5.75;;;2.45;;
54935;SDS011;40838;50.676;7.838;2022-08-03T02:57:08;4.88;;;2.38;;
54935;SDS011;40838;50.676;7.838;2022-08-03T02:59:37;2.50;;;2.20;;
54935;SDS011;40838;50.676;7.838;2022-08-03T03:02:04;2.80;;;2.58;;
54935;SDS011;40838;50.676;7.838;2022-08-03T03:04:31;3.00;;;2.70;;
54935;SDS011;40838;50.676;7.838;2022-08-03T03:06:58;4.22;;;2.80;;
54935;SDS011;40838;50.676;7.838;2022-08-03T03:09:25;3.42;;;2.63;;
54935;SDS011;40838;50.676;7.838;2022-08-03T03:11:52;3.63;;;3.03;;
54935;SDS011;40838;50.676;7.838;2022-08-03T03:14:19;4.88;;;2.92;;
54935;SDS011;40838;50.676;7.838;2022-08-03T03:16:47;3.83;;;2.90;;
54935;SDS011;40838;50.676;7.838;2022-08-03T03:19:14;3.40;;;3.10;;
54935;SDS011;40838;50.676;7.838;2022-08-03T03:21:43;3.33;;;2.97;;
54935;SDS011;40838;50.676;7.838;2022-08-03T03:24:10;5.65;;;3.20;;
54935;SDS011;40838;50.676;7.838;2022-08-03T03:26:37;5.40;;;3.10;;
54935;SDS011;40838;50.676;7.838;2022-08-03T03:29:03;4.22;;;2.88;;
54935;SDS011;40838;50.676;7.838;2022-08-03T03:31:30;5.00;;;3.10;;
54935;SDS011;40838;50.676;7.838;2022-08-03T03:33:58;5.18;;;3.13;;
54935;SDS011;40838;50.676;7.838;2022-08-03T03:36:25;3.17;;;2.88;;
54935;SDS011;40838;50.676;7.838;2022-08-03T03:38:52;4.82;;;3.08;;
54935;SDS011;40838;50.676;7.838;2022-08-03T03:41:18;5.03;;;3.15;;
54935;SDS011;40838;50.676;7.838;2022-08-03T03:43:45;3.35;;;3.03;;
54935;SDS011;40838;50.676;7.838;2022-08-03T03:46:12;3.20;;;2.90;;
54935;SDS011;40838;50.676;7.838;2022-08-03T03:48:38;4.40;;;3.20;;
54935;SDS011;40838;50.676;7.838;2022-08-03T03:51:06;4.93;;;3.35;;
54935;SDS011;40838;50.676;7.838;2022-08-03T03:53:33;6.93;;;3.60;;
54935;SDS011;40838;50.676;7.838;2022-08-03T03:56:00;3.80;;;3.17;;
54935;SDS011;40838;50.676;7.838;2022-08-03T03:58:26;3.50;;;3.20;;
54935;SDS011;40838;50.676;7.838;2022-08-03T04:00:53;4.10;;;3.25;;
54935;SDS011;40838;50.676;7.838;2022-08-03T04:03:19;4.10;;;3.22;;
54935;SDS011;40838;50.676;7.838;2022-08-03T04:05:46;4.13;;;2.97;;
54935;SDS011;40838;50.676;7.838;2022-08-03T04:08:32;4.23;;;3.13;;
54935;SDS011;40838;50.676;7.838;2022-08-03T04:11:17;6.20;;;3.25;;
54935;SDS011;40838;50.676;7.838;2022-08-03T04:13:46;4.70;;;3.10;;
54935;SDS011;40838;50.676;7.838;2022-08-03T04:16:15;4.53;;;3.22;;
54935;SDS011;40838;50.676;7.838;2022-08-03T04:18:43;3.80;;;3.13;;
54935;SDS011;40838;50.676;7.838;2022-08-03T04:21:12;3.83;;;3.08;;
54935;SDS011;40838;50.676;7.838;2022-08-03T04:23:42;4.43;;;3.28;;
54935;SDS011;40838;50.676;7.838;2022-08-03T04:26:10;4.18;;;2.95;;
54935;SDS011;40838;50.676;7.838;2022-08-03T04:28:38;3.25;;;2.72;;
54935;SDS011;40838;50.676;7.838;2022-08-03T04:31:06;5.18;;;3.22;;
54935;SDS011;40838;50.676;7.838;2022-08-03T04:33:34;3.08;;;2.78;;
54935;SDS011;40838;50.676;7.838;2022-08-03T04:36:03;4.00;;;3.10;;
54935;SDS011;40838;50.676;7.838;2022-08-03T04:38:30;4.68;;;3.10;;
54935;SDS011;40838;50.676;7.838;2022-08-03T04:41:00;3.35;;;3.10;;
54935;SDS011;40838;50.676;7.838;2022-08-03T04:43:27;3.63;;;3.10;;
54935;SDS011;40838;50.676;7.838;2022-08-03T04:45:54;5.75;;;3.15;;
54935;SDS011;40838;50.676;7.838;2022-08-03T04:48:21;3.08;;;2.78;;
54935;SDS011;40838;50.676;7.838;2022-08-03T04:50:48;3.83;;;2.95;;
54935;SDS011;40838;50.676;7.838;2022-08-03T04:53:15;4.50;;;3.20;;
54935;SDS011;40838;50.676;7.838;2022-08-03T04:55:43;4.65;;;2.88;;
54935;SDS011;40838;50.676;7.838;2022-08-03T04:58:11;4.43;;;3.08;;
54935;SDS011;40838;50.676;7.838;2022-08-03T05:00:38;3.30;;;3.00;;
54935;SDS011;40838;50.676;7.838;2022-08-03T05:03:07;3.60;;;3.15;;
54935;SDS011;40838;50.676;7.838;2022-08-03T05:05:35;4.75;;;3.17;;
54935;SDS011;40838;50.676;7.838;2022-08-03T05:08:01;3.38;;;3.10;;
54935;SDS011;40838;50.676;7.838;2022-08-03T05:10:28;10.27;;;3.40;;
54935;SDS011;40838;50.676;7.838;2022-08-03T05:12:55;2.90;;;2.70;;
54935;SDS011;40838;50.676;7.838;2022-08-03T05:18:31;2.70;;;2.50;;
54935;SDS011;40838;50.676;7.838;2022-08-03T05:20:58;3.17;;;2.90;;
54935;SDS011;40838;50.676;7.838;2022-08-03T05:33:48;3.90;;;2.92;;
54935;SDS011;40838;50.676;7.838;2022-08-03T05:36:15;5.97;;;2.80;;
54935;SDS011;40838;50.676;7.838;2022-08-03T05:38:42;2.88;;;2.40;;
54935;SDS011;40838;50.676;7.838;2022-08-03T05:41:23;3.08;;;2.78;;
54935;SDS011;40838;50.676;7.838;2022-08-03T05:43:50;2.47;;;2.28;;
54935;SDS011;40838;50.676;7.838;2022-08-03T05:46:17;3.10;;;2.15;;
54935;SDS011;40838;50.676;7.838;2022-08-03T05:48:46;2.92;;;2.72;;
54935;SDS011;40838;50.676;7.838;2022-08-03T05:51:13;4.78;;;2.00;;
54935;SDS011;40838;50.676;7.838;2022-08-03T05:56:16;2.55;;;2.33;;
54935;SDS011;40838;50.676;7.838;2022-08-03T05:58:43;3.22;;;2.10;;
54935;SDS011;40838;50.676;7.838;2022-08-03T06:01:10;2.10;;;1.90;;
54935;SDS011;40838;50.676;7.838;2022-08-03T06:03:36;2.17;;;1.55;;
54935;SDS011;40838;50.676;7.838;2022-08-03T06:06:04;2.63;;;1.75;;
54935;SDS011;40838;50.676;7.838;2022-08-03T06:08:31;2.15;;;1.95;;
54935;SDS011;40838;50.676;7.838;2022-08-03T06:10:58;2.38;;;2.13;;
54935;SDS011;40838;50.676;7.838;2022-08-03T06:13:24;3.28;;;1.70;;
54935;SDS011;40838;50.676;7.838;2022-08-03T06:15:51;3.47;;;1.60;;
54935;SDS011;40838;50.676;7.838;2022-08-03T06:18:18;5.10;;;1.98;;
54935;SDS011;40838;50.676;7.838;2022-08-03T06:20:44;5.85;;;2.10;;
54935;SDS011;40838;50.676;7.838;2022-08-03T06:23:12;3.25;;;1.98;;
54935;SDS011;40838;50.676;7.838;2022-08-03T06:25:39;3.55;;;1.80;;
54935;SDS011;40838;50.676;7.838;2022-08-03T06:28:06;1.98;;;1.73;;
54935;SDS011;40838;50.676;7.838;2022-08-03T06:30:32;4.05;;;1.83;;
54935;SDS011;40838;50.676;7.838;2022-08-03T06:32:59;3.72;;;1.67;;
54935;SDS011;40838;50.676;7.838;2022-08-03T06:35:26;1.92;;;1.60;;
54935;SDS011;40838;50.676;7.838;2022-08-03T06:37:56;2.05;;;1.85;;
54935;SDS011;40838;50.676;7.838;2022-08-03T06:40:24;5.50;;;1.90;;
54935;SDS011;40838;50.676;7.838;2022-08-03T06:42:55;3.75;;;1.40;;
54935;SDS011;40838;50.676;7.838;2022-08-03T06:45:22;8.27;;;2.17;;
54935;SDS011;40838;50.676;7.838;2022-08-03T06:47:58;1.90;;;1.80;;
54935;SDS011;40838;50.676;7.838;2022-08-03T06:50:25;2.83;;;1.63;;
54935;SDS011;40838;50.676;7.838;2022-08-03T06:52:51;1.67;;;1.58;;
54935;SDS011;40838;50.676;7.838;2022-08-03T06:55:18;3.72;;;1.50;;
54935;SDS011;40838;50.676;7.838;2022-08-03T06:57:46;9.20;;;2.03;;
54935;SDS011;40838;50.676;7.838;2022-08-03T07:00:13;2.53;;;1.83;;
54935;SDS011;40838;50.676;7.838;2022-08-03T07:02:40;4.85;;;1.95;;
54935;SDS011;40838;50.676;7.838;2022-08-03T07:05:07;2.17;;;1.50;;
54935;SDS011;40838;50.676;7.838;2022-08-03T07:07:34;1.70;;;1.60;;
54935;SDS011;40838;50.676;7.838;2022-08-03T07:10:01;4.15;;;1.98;;
54935;SDS011;40838;50.676;7.838;2022-08-03T07:12:28;5.57;;;1.73;;
54935;SDS011;40838;50.676;7.838;2022-08-03T07:14:57;13.13;;;1.55;;
54935;SDS011;40838;50.676;7.838;2022-08-03T07:17:24;4.13;;;1.90;;
54935;SDS011;40838;50.676;7.838;2022-08-03T07:19:50;3.45;;;1.90;;
54935;SDS011;40838;50.676;7.838;2022-08-03T07:22:18;3.85;;;1.60;;
54935;SDS011;40838;50.676;7.838;2022-08-03T07:24:45;5.20;;;1.38;;
54935;SDS011;40838;50.676;7.838;2022-08-03T07:27:12;5.50;;;1.88;;
54935;SDS011;40838;50.676;7.838;2022-08-03T07:29:40;4.50;;;1.60;;
54935;SDS011;40838;50.676;7.838;2022-08-03T07:32:08;3.83;;;1.85;;
54935;SDS011;40838;50.676;7.838;2022-08-03T07:34:35;2.42;;;1.38;;
54935;SDS011;40838;50.676;7.838;2022-08-03T07:37:02;6.13;;;1.77;;
54935;SDS011;40838;50.676;7.838;2022-08-03T07:39:28;1.65;;;1.30;;
54935;SDS011;40838;50.676;7.838;2022-08-03T07:41:55;3.53;;;1.67;;
54935;SDS011;40838;50.676;7.838;2022-08-03T07:44:22;2.38;;;1.83;;
54935;SDS011;40838;50.676;7.838;2022-08-03T07:46:48;5.28;;;1.40;;
54935;SDS011;40838;50.676;7.838;2022-08-03T07:49:17;7.38;;;1.90;;
54935;SDS011;40838;50.676;7.838;2022-08-03T07:51:44;3.03;;;1.40;;
54935;SDS011;40838;50.676;7.838;2022-08-03T07:54:30;1.90;;;1.40;;
54935;SDS011;40838;50.676;7.838;2022-08-03T07:56:57;4.63;;;1.83;;
54935;SDS011;40838;50.676;7.838;2022-08-03T07:59:24;4.75;;;1.42;;
54935;SDS011;40838;50.676;7.838;2022-08-03T08:01:50;1.90;;;1.67;;
54935;SDS011;40838;50.676;7.838;2022-08-03T08:04:19;2.20;;;1.33;;
54935;SDS011;40838;50.676;7.838;2022-08-03T08:06:45;6.85;;;1.50;;
54935;SDS011;40838;50.676;7.838;2022-08-03T08:09:12;6.18;;;1.40;;
54935;SDS011;40838;50.676;7.838;2022-08-03T08:11:39;3.85;;;1.35;;
54935;SDS011;40838;50.676;7.838;2022-08-03T08:14:06;5.25;;;1.58;;
54935;SDS011;40838;50.676;7.838;2022-08-03T08:16:33;3.33;;;1.23;;
54935;SDS011;40838;50.676;7.838;2022-08-03T08:19:00;2.65;;;1.35;;
54935;SDS011;40838;50.676;7.838;2022-08-03T08:21:28;2.05;;;1.27;;
54935;SDS011;40838;50.676;7.838;2022-08-03T08:23:55;3.70;;;1.80;;
54935;SDS011;40838;50.676;7.838;2022-08-03T08:28:57;1.90;;;1.20;;
54935;SDS011;40838;50.676;7.838;2022-08-03T08:31:24;6.22;;;1.63;;
54935;SDS011;40838;50.676;7.838;2022-08-03T08:33:51;4.43;;;1.30;;
54935;SDS011;40838;50.676;7.838;2022-08-03T08:36:17;4.20;;;1.23;;
54935;SDS011;40838;50.676;7.838;2022-08-03T08:38:46;5.95;;;1.10;;
54935;SDS011;40838;50.676;7.838;2022-08-03T08:41:13;2.63;;;1.35;;
54935;SDS011;40838;50.676;7.838;2022-08-03T08:43:40;2.63;;;1.20;;
54935;SDS011;40838;50.676;7.838;2022-08-03T08:46:08;1.45;;;1.20;;
54935;SDS011;40838;50.676;7.838;2022-08-03T08:48:38;1.77;;;1.00;;
54935;SDS011;40838;50.676;7.838;2022-08-03T08:51:05;6.35;;;1.30;;
54935;SDS011;40838;50.676;7.838;2022-08-03T08:53:34;3.10;;;1.00;;
54935;SDS011;40838;50.676;7.838;2022-08-03T08:56:03;11.73;;;1.63;;
54935;SDS011;40838;50.676;7.838;2022-08-03T08:58:32;5.10;;;1.30;;
54935;SDS011;40838;50.676;7.838;2022-08-03T09:01:00;0.95;;;0.95;;
54935;SDS011;40838;50.676;7.838;2022-08-03T09:03:27;2.20;;;1.30;;
54935;SDS011;40838;50.676;7.838;2022-08-03T09:05:53;1.65;;;0.95;;
54935;SDS011;40838;50.676;7.838;2022-08-03T09:08:20;1.17;;;1.10;;
54935;SDS011;40838;50.676;7.838;2022-08-03T09:13:34;4.30;;;1.40;;
54935;SDS011;40838;50.676;7.838;2022-08-03T09:16:10;1.55;;;1.20;;
54935;SDS011;40838;50.676;7.838;2022-08-03T09:18:37;1.30;;;1.20;;
54935;SDS011;40838;50.676;7.838;2022-08-03T09:21:16;2.08;;;1.10;;
54935;SDS011;40838;50.676;7.838;2022-08-03T09:23:43;1.58;;;0.93;;
54935;SDS011;40838;50.676;7.838;2022-08-03T09:26:24;2.88;;;1.20;;
54935;SDS011;40838;50.676;7.838;2022-08-03T09:28:56;1.58;;;1.10;;
54935;SDS011;40838;50.676;7.838;2022-08-03T09:31:34;2.90;;;1.23;;
54935;SDS011;40838;50.676;7.838;2022-08-03T09:34:02;2.97;;;1.60;;
54935;SDS011;40838;50.676;7.838;2022-08-03T09:36:35;1.98;;;1.10;;
54935;SDS011;40838;50.676;7.838;2022-08-03T09:39:02;4.60;;;1.13;;
54935;SDS011;40838;50.676;7.838;2022-08-03T09:41:30;1.25;;;1.15;;
54935;SDS011;40838;50.676;7.838;2022-08-03T09:43:58;5.13;;;1.40;;
54935;SDS011;40838;50.676;7.838;2022-08-03T09:46:25;4.60;;;1.20;;
54935;SDS011;40838;50.676;7.838;2022-08-03T09:49:08;1.52;;;1.10;;
54935;SDS011;40838;50.676;7.838;2022-08-03T09:54:39;2.88;;;1.17;;
54935;SDS011;40838;50.676;7.838;2022-08-03T09:57:06;4.03;;;1.02;;
54935;SDS011;40838;50.676;7.838;2022-08-03T09:59:34;1.67;;;1.23;;
54935;SDS011;40838;50.676;7.838;2022-08-03T10:02:00;1.65;;;1.10;;
54935;SDS011;40838;50.676;7.838;2022-08-03T10:04:27;2.22;;;1.33;;
54935;SDS011;40838;50.676;7.838;2022-08-03T10:07:01;1.42;;;1.15;;
54935;SDS011;40838;50.676;7.838;2022-08-03T10:09:28;1.92;;;1.23;;
54935;SDS011;40838;50.676;7.838;2022-08-03T10:11:54;1.80;;;1.15;;
54935;SDS011;40838;50.676;7.838;2022-08-03T10:16:59;1.30;;;1.20;;
54935;SDS011;40838;50.676;7.838;2022-08-03T10:19:25;2.60;;;1.30;;
54935;SDS011;40838;50.676;7.838;2022-08-03T10:21:54;1.52;;;1.15;;
54935;SDS011;40838;50.676;7.838;2022-08-03T10:24:23;1.58;;;1.13;;
54935;SDS011;40838;50.676;7.838;2022-08-03T10:26:50;6.32;;;1.08;;
54935;SDS011;40838;50.676;7.838;2022-08-03T10:29:19;2.90;;;1.20;;
54935;SDS011;40838;50.676;7.838;2022-08-03T10:31:46;1.08;;;1.08;;
54935;SDS011;40838;50.676;7.838;2022-08-03T10:34:20;1.15;;;1.08;;
54935;SDS011;40838;50.676;7.838;2022-08-03T10:36:52;1.92;;;1.15;;
54935;SDS011;40838;50.676;7.838;2022-08-03T10:39:20;2.10;;;0.90;;
54935;SDS011;40838;50.676;7.838;2022-08-03T10:41:48;1.38;;;1.15;;
54935;SDS011;40838;50.676;7.838;2022-08-03T10:44:16;1.52;;;1.13;;
54935;SDS011;40838;50.676;7.838;2022-08-03T10:46:43;2.47;;;1.15;;
54935;SDS011;40838;50.676;7.838;2022-08-03T10:49:11;2.95;;;1.15;;
54935;SDS011;40838;50.676;7.838;2022-08-03T10:51:39;2.13;;;1.33;;
54935;SDS011;40838;50.676;7.838;2022-08-03T10:54:07;1.10;;;1.00;;
54935;SDS011;40838;50.676;7.838;2022-08-03T10:59:57;0.98;;;0.90;;
54935;SDS011;40838;50.676;7.838;2022-08-03T11:05:24;2.47;;;0.80;;
54935;SDS011;40838;50.676;7.838;2022-08-03T11:08:04;1.20;;;1.00;;
54935;SDS011;40838;50.676;7.838;2022-08-03T11:10:42;5.10;;;0.90;;
54935;SDS011;40838;50.676;7.838;2022-08-03T11:13:09;1.30;;;0.82;;
54935;SDS011;40838;50.676;7.838;2022-08-03T11:15:36;2.85;;;1.02;;
54935;SDS011;40838;50.676;7.838;2022-08-03T11:18:06;1.17;;;1.08;;
54935;SDS011;40838;50.676;7.838;2022-08-03T11:20:43;2.88;;;0.80;;
54935;SDS011;40838;50.676;7.838;2022-08-03T11:23:12;2.10;;;1.00;;
54935;SDS011;40838;50.676;7.838;2022-08-03T11:28:25;3.97;;;1.00;;
54935;SDS011;40838;50.676;7.838;2022-08-03T11:30:52;1.80;;;0.95;;
54935;SDS011;40838;50.676;7.838;2022-08-03T11:33:27;0.82;;;0.80;;
54935;SDS011;40838;50.676;7.838;2022-08-03T11:35:57;0.98;;;0.70;;
54935;SDS011;40838;50.676;7.838;2022-08-03T11:38:26;0.90;;;0.77;;
54935;SDS011;40838;50.676;7.838;2022-08-03T11:40:53;2.13;;;0.90;;
54935;SDS011;40838;50.676;7.838;2022-08-03T11:46:11;0.88;;;0.68;;
54935;SDS011;40838;50.676;7.838;2022-08-03T11:48:42;1.10;;;0.77;;
54935;SDS011;40838;50.676;7.838;2022-08-03T11:51:17;0.90;;;0.90;;
54935;SDS011;40838;50.676;7.838;2022-08-03T11:53:46;3.42;;;1.15;;
54935;SDS011;40838;50.676;7.838;2022-08-03T11:56:13;2.25;;;0.90;;
54935;SDS011;40838;50.676;7.838;2022-08-03T11:58:45;2.45;;;0.98;;
54935;SDS011;40838;50.676;7.838;2022-08-03T12:01:12;3.20;;;0.85;;
54935;SDS011;40838;50.676;7.838;2022-08-03T12:03:41;1.23;;;0.50;;
54935;SDS011;40838;50.676;7.838;2022-08-03T12:06:08;3.25;;;0.70;;
54935;SDS011;40838;50.676;7.838;2022-08-03T12:08:35;0.63;;;0.63;;
54935;SDS011;40838;50.676;7.838;2022-08-03T12:11:04;0.75;;;0.63;;
54935;SDS011;40838;50.676;7.838;2022-08-03T12:13:35;0.68;;;0.68;;
54935;SDS011;40838;50.676;7.838;2022-08-03T12:16:02;1.55;;;0.80;;
54935;SDS011;40838;50.676;7.838;2022-08-03T12:18:29;0.85;;;0.80;;
54935;SDS011;40838;50.676;7.838;2022-08-03T12:21:03;1.15;;;0.70;;
54935;SDS011;40838;50.676;7.838;2022-08-03T12:23:30;0.68;;;0.65;;
54935;SDS011;40838;50.676;7.838;2022-08-03T12:26:00;6.82;;;1.17;;
54935;SDS011;40838;50.676;7.838;2022-08-03T12:28:28;3.35;;;0.70;;
54935;SDS011;40838;50.676;7.838;2022-08-03T12:30:59;1.15;;;0.80;;
54935;SDS011;40838;50.676;7.838;2022-08-03T12:33:26;1.38;;;0.60;;
54935;SDS011;40838;50.676;7.838;2022-08-03T12:36:05;1.48;;;0.80;;
54935;SDS011;40838;50.676;7.838;2022-08-03T12:38:33;1.25;;;0.60;;
54935;SDS011;40838;50.676;7.838;2022-08-03T12:41:01;3.70;;;0.90;;
54935;SDS011;40838;50.676;7.838;2022-08-03T12:43:30;2.33;;;0.80;;
54935;SDS011;40838;50.676;7.838;2022-08-03T12:46:09;2.65;;;0.70;;
54935;SDS011;40838;50.676;7.838;2022-08-03T12:51:20;1.08;;;0.80;;
54935;SDS011;40838;50.676;7.838;2022-08-03T12:53:50;2.60;;;0.90;;
54935;SDS011;40838;50.676;7.838;2022-08-03T12:56:17;1.05;;;0.90;;
54935;SDS011;40838;50.676;7.838;2022-08-03T12:58:46;5.82;;;0.90;;
54935;SDS011;40838;50.676;7.838;2022-08-03T13:04:48;4.10;;;1.00;;
54935;SDS011;40838;50.676;7.838;2022-08-03T13:07:15;1.92;;;0.80;;
54935;SDS011;40838;50.676;7.838;2022-08-03T13:09:43;2.47;;;1.10;;
54935;SDS011;40838;50.676;7.838;2022-08-03T13:12:11;1.98;;;1.00;;
54935;SDS011;40838;50.676;7.838;2022-08-03T13:14:39;8.73;;;1.27;;
54935;SDS011;40838;50.676;7.838;2022-08-03T13:17:06;2.65;;;0.93;;
54935;SDS011;40838;50.676;7.838;2022-08-03T13:19:33;4.38;;;1.23;;
54935;SDS011;40838;50.676;7.838;2022-08-03T13:22:00;2.67;;;0.90;;
54935;SDS011;40838;50.676;7.838;2022-08-03T13:24:28;3.22;;;1.10;;
54935;SDS011;40838;50.676;7.838;2022-08-03T13:27:03;2.50;;;0.95;;
54935;SDS011;40838;50.676;7.838;2022-08-03T13:31:59;4.22;;;1.00;;
54935;SDS011;40838;50.676;7.838;2022-08-03T13:34:26;7.60;;;1.02;;
54935;SDS011;40838;50.676;7.838;2022-08-03T13:36:53;2.60;;;0.80;;
54935;SDS011;40838;50.676;7.838;2022-08-03T13:39:19;3.38;;;1.02;;
54935;SDS011;40838;50.676;7.838;2022-08-03T13:41:46;1.33;;;0.90;;
54935;SDS011;40838;50.676;7.838;2022-08-03T13:44:13;1.80;;;1.02;;
54935;SDS011;40838;50.676;7.838;2022-08-03T13:46:40;8.13;;;1.00;;
54935;SDS011;40838;50.676;7.838;2022-08-03T13:52:11;1.08;;;0.90;;
54935;SDS011;40838;50.676;7.838;2022-08-03T13:54:38;5.35;;;1.00;;
54935;SDS011;40838;50.676;7.838;2022-08-03T13:57:04;4.80;;;1.08;;
54935;SDS011;40838;50.676;7.838;2022-08-03T13:59:31;1.05;;;0.95;;
54935;SDS011;40838;50.676;7.838;2022-08-03T14:01:58;1.60;;;1.20;;
54935;SDS011;40838;50.676;7.838;2022-08-03T14:04:25;3.70;;;1.23;;
54935;SDS011;40838;50.676;7.838;2022-08-03T14:06:52;5.47;;;1.38;;
54935;SDS011;40838;50.676;7.838;2022-08-03T14:09:19;1.17;;;1.10;;
54935;SDS011;40838;50.676;7.838;2022-08-03T14:11:49;4.95;;;1.55;;
54935;SDS011;40838;50.676;7.838;2022-08-03T14:14:16;1.42;;;1.02;;
54935;SDS011;40838;50.676;7.838;2022-08-03T14:16:43;1.25;;;1.05;;
54935;SDS011;40838;50.676;7.838;2022-08-03T14:19:09;3.25;;;1.20;;
54935;SDS011;40838;50.676;7.838;2022-08-03T14:21:36;2.90;;;1.20;;
54935;SDS011;40838;50.676;7.838;2022-08-03T14:24:03;2.75;;;1.00;;
54935;SDS011;40838;50.676;7.838;2022-08-03T14:26:31;3.45;;;1.02;;
54935;SDS011;40838;50.676;7.838;2022-08-03T14:28:58;1.70;;;0.90;;
54935;SDS011;40838;50.676;7.838;2022-08-03T14:31:25;1.88;;;1.50;;
54935;SDS011;40838;50.676;7.838;2022-08-03T14:33:53;2.80;;;1.52;;
54935;SDS011;40838;50.676;7.838;2022-08-03T14:36:19;2.10;;;0.90;;
54935;SDS011;40838;50.676;7.838;2022-08-03T14:38:46;7.25;;;0.98;;
54935;SDS011;40838;50.676;7.838;2022-08-03T14:41:13;2.83;;;1.05;;
54935;SDS011;40838;50.676;7.838;2022-08-03T14:43:42;1.05;;;0.80;;
54935;SDS011;40838;50.676;7.838;2022-08-03T14:46:08;5.28;;;0.90;;
54935;SDS011;40838;50.676;7.838;2022-08-03T14:48:35;1.17;;;1.02;;
54935;SDS011;40838;50.676;7.838;2022-08-03T14:51:03;1.60;;;0.90;;
54935;SDS011;40838;50.676;7.838;2022-08-03T14:53:29;2.38;;;0.80;;
54935;SDS011;40838;50.676;7.838;2022-08-03T14:55:56;5.75;;;0.80;;
54935;SDS011;40838;50.676;7.838;2022-08-03T14:58:23;4.55;;;1.15;;
54935;SDS011;40838;50.676;7.838;2022-08-03T15:00:52;2.85;;;1.00;;
54935;SDS011;40838;50.676;7.838;2022-08-03T15:03:20;3.20;;;1.05;;
54935;SDS011;40838;50.676;7.838;2022-08-03T15:05:47;2.53;;;1.00;;
54935;SDS011;40838;50.676;7.838;2022-08-03T15:08:14;2.67;;;0.93;;
54935;SDS011;40838;50.676;7.838;2022-08-03T15:10:40;1.45;;;0.90;;
54935;SDS011;40838;50.676;7.838;2022-08-03T15:13:07;1.42;;;1.23;;
54935;SDS011;40838;50.676;7.838;2022-08-03T15:15:35;2.85;;;1.10;;
54935;SDS011;40838;50.676;7.838;2022-08-03T15:18:03;4.10;;;1.27;;
54935;SDS011;40838;50.676;7.838;2022-08-03T15:20:30;2.47;;;1.42;;
54935;SDS011;40838;50.676;7.838;2022-08-03T15:22:57;1.60;;;1.10;;
54935;SDS011;40838;50.676;7.838;2022-08-03T15:25:23;3.60;;;1.02;;
54935;SDS011;40838;50.676;7.838;2022-08-03T15:27:50;2.55;;;1.13;;
54935;SDS011;40838;50.676;7.838;2022-08-03T15:30:17;5.35;;;1.20;;
54935;SDS011;40838;50.676;7.838;2022-08-03T15:32:44;5.10;;;1.35;;
54935;SDS011;40838;50.676;7.838;2022-08-03T15:35:13;3.60;;;1.25;;
54935;SDS011;40838;50.676;7.838;2022-08-03T15:37:40;2.78;;;1.08;;
54935;SDS011;40838;50.676;7.838;2022-08-03T15:40:12;4.60;;;1.10;;
54935;SDS011;40838;50.676;7.838;2022-08-03T15:42:39;2.35;;;1.08;;
54935;SDS011;40838;50.676;7.838;2022-08-03T15:45:06;1.80;;;1.00;;
54935;SDS011;40838;50.676;7.838;2022-08-03T15:47:33;2.40;;;1.13;;